Time;durP1;ratioP1;P1;durP2;ratioP2;P2;SDS_P1;SDS_P2;PMS_P1;PMS_P2;Temp;Humidity;BMP_temperature;BMP_pressure;BME280_temperature;BME280_humidity;BME280_pressure;Samples;Min_cycle;Max_cycle;Signal;HPM_P1;HPM_P2
2021/12/22 00:01:31;;;;;;;57.72;33.35;;;3.00;99.90;;;;;;5017894;28;20081;-76
2021/12/22 00:03:58;;;;;;;63.88;38.08;;;3.20;99.90;;;;;;5017736;28;20057;-76
2021/12/22 00:06:26;;;;;;;53.17;30.27;;;3.30;99.90;;;;;;5017794;28;20042;-75
2021/12/22 00:08:52;;;;;;;51.25;30.15;;;3.40;99.90;;;;;;5016504;28;20390;-76
2021/12/22 00:11:18;;;;;;;49.88;28.05;;;3.70;99.90;;;;;;5046705;28;20502;-76
2021/12/22 00:13:44;;;;;;;48.50;29.73;;;3.80;99.90;;;;;;5015874;28;20375;-76
2021/12/22 00:16:10;;;;;;;48.22;29.67;;;3.90;99.90;;;;;;5016177;28;20397;-76
2021/12/22 00:18:36;;;;;;;47.25;29.75;;;4.00;99.90;;;;;;5019669;28;20032;-75
2021/12/22 00:21:03;;;;;;;46.40;29.33;;;4.00;99.90;;;;;;5016865;28;20065;-76
2021/12/22 00:23:29;;;;;;;42.50;26.05;;;4.00;99.90;;;;;;5019209;28;20065;-76
2021/12/22 00:25:56;;;;;;;42.78;26.17;;;4.00;99.90;;;;;;5017580;28;20029;-76
2021/12/22 00:28:22;;;;;;;46.97;27.02;;;4.00;99.90;;;;;;5016550;28;20049;-76
2021/12/22 00:30:50;;;;;;;42.95;26.33;;;4.10;99.90;;;;;;5017133;28;20037;-76
2021/12/22 00:33:16;;;;;;;40.92;25.60;;;4.10;99.90;;;;;;5017420;28;20022;-76
2021/12/22 00:35:45;;;;;;;38.88;23.52;;;4.20;99.90;;;;;;5016685;28;20033;-76
2021/12/22 00:38:19;;;;;;;38.28;25.35;;;4.20;99.90;;;;;;5015031;28;20018;-76
2021/12/22 00:40:46;;;;;;;39.28;26.85;;;4.10;99.90;;;;;;5015352;28;20497;-76
2021/12/22 00:43:13;;;;;;;37.75;24.98;;;4.10;99.90;;;;;;5012807;28;20054;-77
2021/12/22 00:45:39;;;;;;;37.75;23.38;;;4.10;99.90;;;;;;5016055;28;20030;-76
2021/12/22 00:48:07;;;;;;;35.92;24.60;;;4.10;99.90;;;;;;5015854;28;20030;-76
2021/12/22 00:50:34;;;;;;;36.53;25.77;;;4.20;99.90;;;;;;5018741;28;20076;-76
2021/12/22 00:53:00;;;;;;;32.70;23.08;;;4.20;99.90;;;;;;5020005;28;20061;-76
2021/12/22 00:55:26;;;;;;;34.38;23.17;;;4.30;99.90;;;;;;5007643;28;20034;-77
2021/12/22 00:57:52;;;;;;;32.67;23.35;;;4.30;99.90;;;;;;5021258;28;20018;-76
2021/12/22 01:00:21;;;;;;;35.03;22.35;;;4.30;99.90;;;;;;5020713;28;20044;-76
2021/12/22 01:02:47;;;;;;;29.60;21.85;;;4.40;99.90;;;;;;5020686;28;20049;-76
2021/12/22 01:05:15;;;;;;;29.83;19.83;;;4.40;99.90;;;;;;5019693;28;20026;-76
2021/12/22 01:07:43;;;;;;;29.70;21.50;;;4.50;99.90;;;;;;5018156;28;20050;-76
2021/12/22 01:10:10;;;;;;;27.50;18.33;;;4.60;99.90;;;;;;5019089;28;20037;-76
2021/12/22 01:12:36;;;;;;;32.40;21.75;;;4.60;99.90;;;;;;5015839;28;20026;-77
2021/12/22 01:15:03;;;;;;;29.08;20.20;;;4.70;99.90;;;;;;5052695;28;20121;-77
2021/12/22 01:17:37;;;;;;;25.60;19.05;;;4.60;99.90;;;;;;5052681;28;20029;-76
2021/12/22 01:20:10;;;;;;;29.88;19.83;;;4.60;99.90;;;;;;5021030;28;20022;-76
2021/12/22 01:25:10;;;;;;;32.20;20.77;;;4.50;99.90;;;;;;5000607;28;20034;-76
2021/12/22 01:27:40;;;;;;;30.05;21.08;;;4.40;99.90;;;;;;5015525;28;20113;-76
2021/12/22 01:30:09;;;;;;;35.03;21.83;;;4.50;99.90;;;;;;5019109;28;20033;-76
2021/12/22 01:32:36;;;;;;;28.50;19.27;;;4.50;99.90;;;;;;5019485;28;20028;-76
2021/12/22 01:35:05;;;;;;;28.58;21.10;;;4.40;99.90;;;;;;5027775;28;20100;-75
2021/12/22 01:37:31;;;;;;;32.83;20.80;;;4.40;99.90;;;;;;5020385;28;20103;-76
2021/12/22 01:39:56;;;;;;;30.42;21.70;;;4.40;99.90;;;;;;5020505;28;20064;-76
2021/12/22 01:42:22;;;;;;;26.55;20.25;;;4.50;99.90;;;;;;5018514;28;20033;-76
2021/12/22 01:50:48;;;;;;;32.10;21.10;;;4.30;99.90;;;;;;5020231;28;20072;-75
2021/12/22 01:53:20;;;;;;;29.17;19.42;;;4.40;99.90;;;;;;5015353;28;20533;-76
2021/12/22 01:56:04;;;;;;;27.40;21.25;;;4.40;99.90;;;;;;5010307;28;20030;-76
2021/12/22 01:58:35;;;;;;;30.52;20.48;;;4.50;99.90;;;;;;5019802;28;20033;-76
2021/12/22 02:01:03;;;;;;;33.35;22.70;;;4.50;99.90;;;;;;5019592;28;20099;-76
2021/12/22 02:03:29;;;;;;;32.35;22.23;;;4.40;99.90;;;;;;5034108;28;20025;-76
2021/12/22 02:05:54;;;;;;;35.97;21.10;;;4.40;99.90;;;;;;5030856;28;20036;-76
2021/12/22 02:08:20;;;;;;;29.92;20.98;;;4.30;99.90;;;;;;5005853;28;20028;-76
2021/12/22 02:10:47;;;;;;;33.67;21.42;;;4.30;99.90;;;;;;5031068;28;20121;-76
2021/12/22 02:13:19;;;;;;;30.95;20.30;;;4.20;99.90;;;;;;5033078;28;20033;-76
2021/12/22 02:15:47;;;;;;;31.55;21.70;;;4.20;99.90;;;;;;5019494;28;20402;-76
2021/12/22 02:18:17;;;;;;;33.30;20.83;;;4.20;99.90;;;;;;5017792;28;20093;-77
2021/12/22 02:20:43;;;;;;;;;;;4.20;99.90;;;;;;5025091;28;20091;-75
2021/12/22 02:23:09;;;;;;;34.50;21.05;;;4.20;99.90;;;;;;5026418;28;19936;-76
2021/12/22 02:25:43;;;;;;;36.58;23.25;;;4.20;99.90;;;;;;5014587;28;20033;-76
2021/12/22 02:28:16;;;;;;;31.60;22.40;;;4.20;99.90;;;;;;5014038;28;20029;-76
2021/12/22 02:30:42;;;;;;;32.30;22.75;;;4.20;99.90;;;;;;5016403;28;20125;-76
2021/12/22 02:33:53;;;;;;;29.55;21.05;;;4.30;99.90;;;;;;5022035;28;20061;-76
2021/12/22 02:38:32;;;;;;;35.40;22.40;;;4.40;99.90;;;;;;5006351;28;20500;-76
2021/12/22 02:40:58;;;;;;;30.73;22.35;;;4.40;99.90;;;;;;5019426;28;20022;-76
2021/12/22 02:43:30;;;;;;;32.30;23.48;;;4.50;99.90;;;;;;5017887;28;20037;-76
2021/12/22 02:45:56;;;;;;;38.30;21.30;;;4.60;99.90;;;;;;5018380;28;20049;-76
2021/12/22 02:48:25;;;;;;;31.00;20.98;;;4.60;99.90;;;;;;5031847;28;20029;-76
2021/12/22 02:50:54;;;;;;;34.90;20.35;;;4.60;99.90;;;;;;5018552;28;20021;-76
2021/12/22 02:53:21;;;;;;;33.55;21.67;;;4.70;99.90;;;;;;5018930;28;20555;-76
2021/12/22 02:55:51;;;;;;;26.05;20.27;;;4.70;99.90;;;;;;5017852;28;20022;-76
2021/12/22 02:58:32;;;;;;;33.08;22.15;;;4.80;99.90;;;;;;5019014;28;20022;-76
2021/12/22 03:06:13;;;;;;;30.17;21.92;;;4.60;99.90;;;;;;5018440;28;20095;-76
2021/12/22 03:08:39;;;;;;;31.25;22.20;;;4.60;99.90;;;;;;5018980;28;20046;-76
2021/12/22 03:11:04;;;;;;;31.92;20.60;;;4.60;99.90;;;;;;5018194;28;20084;-76
2021/12/22 03:13:31;;;;;;;30.98;21.73;;;4.60;99.90;;;;;;5012539;28;20026;-76
2021/12/22 03:15:57;;;;;;;35.30;21.20;;;4.50;99.90;;;;;;5031419;28;20466;-76
2021/12/22 03:18:23;;;;;;;36.00;22.05;;;4.50;99.90;;;;;;5033699;28;20435;-76
2021/12/22 03:20:58;;;;;;;28.83;20.17;;;4.60;99.90;;;;;;5028249;28;20033;-76
2021/12/22 03:23:23;;;;;;;28.63;20.02;;;4.60;99.90;;;;;;5017096;28;20045;-76
2021/12/22 03:25:49;;;;;;;25.50;19.85;;;4.60;99.90;;;;;;5023543;28;20038;-76
2021/12/22 03:28:15;;;;;;;30.75;19.50;;;4.70;99.90;;;;;;5035243;28;20079;-76
2021/12/22 03:30:41;;;;;;;29.33;19.63;;;4.70;99.90;;;;;;5013842;28;20026;-76
2021/12/22 03:33:07;;;;;;;33.17;20.85;;;4.70;99.90;;;;;;5049217;28;20025;-75
2021/12/22 03:35:35;;;;;;;27.42;20.05;;;4.70;99.90;;;;;;5016894;28;20076;-76
2021/12/22 03:38:01;;;;;;;29.00;20.90;;;4.70;99.90;;;;;;5013657;28;20022;-75
2021/12/22 03:40:27;;;;;;;29.30;20.88;;;4.70;99.90;;;;;;5017699;28;20056;-76
2021/12/22 03:42:53;;;;;;;28.83;20.35;;;4.70;99.90;;;;;;5017270;28;20486;-76
2021/12/22 03:45:19;;;;;;;34.45;20.05;;;4.70;99.90;;;;;;5038310;28;20038;-76
2021/12/22 03:47:46;;;;;;;27.27;20.30;;;4.70;99.90;;;;;;5048809;28;20394;-76
2021/12/22 03:50:13;;;;;;;29.20;18.90;;;4.70;99.90;;;;;;5016470;28;20052;-76
2021/12/22 03:52:39;;;;;;;29.90;20.08;;;4.80;99.90;;;;;;5017140;28;20013;-76
2021/12/22 03:55:06;;;;;;;27.13;19.63;;;4.80;99.90;;;;;;5048789;28;20057;-76
2021/12/22 03:57:32;;;;;;;30.77;21.35;;;4.80;99.90;;;;;;5017017;28;20045;-76
2021/12/22 03:59:59;;;;;;;26.30;19.27;;;4.90;99.90;;;;;;5048997;28;20437;-76
2021/12/22 04:02:26;;;;;;;33.63;21.02;;;4.90;99.90;;;;;;5048660;28;20029;-76
2021/12/22 04:04:52;;;;;;;30.25;20.83;;;4.90;99.90;;;;;;5016818;28;20080;-76
2021/12/22 04:07:19;;;;;;;29.73;21.35;;;4.90;99.90;;;;;;5016638;28;20042;-76
2021/12/22 04:09:45;;;;;;;29.17;21.45;;;4.80;99.90;;;;;;5047751;28;20061;-76
2021/12/22 04:12:11;;;;;;;28.52;20.92;;;4.80;99.90;;;;;;5016591;28;20025;-76
2021/12/22 04:14:38;;;;;;;29.00;22.15;;;4.80;99.90;;;;;;5017031;28;20029;-76
2021/12/22 04:17:04;;;;;;;26.52;20.02;;;4.70;99.90;;;;;;5016316;28;20054;-77
2021/12/22 04:19:30;;;;;;;31.98;23.33;;;4.80;99.90;;;;;;5016651;28;20033;-76
2021/12/22 04:21:56;;;;;;;32.20;22.05;;;4.70;99.90;;;;;;5016828;28;20104;-76
2021/12/22 04:24:22;;;;;;;28.30;21.73;;;4.70;99.90;;;;;;5014667;28;20069;-75
2021/12/22 04:26:50;;;;;;;28.05;21.50;;;4.70;99.90;;;;;;5016305;28;20393;-76
2021/12/22 04:29:16;;;;;;;27.65;20.73;;;4.60;99.90;;;;;;5015392;28;20085;-76
2021/12/22 04:31:42;;;;;;;33.47;23.85;;;4.60;99.90;;;;;;4999824;28;20026;-76
2021/12/22 04:34:08;;;;;;;29.95;22.50;;;4.60;99.90;;;;;;5016086;28;20030;-76
2021/12/22 04:36:38;;;;;;;37.45;22.67;;;4.70;99.90;;;;;;5016720;28;20109;-75
2021/12/22 04:39:06;;;;;;;190.00;80.73;;;4.60;99.90;;;;;;5022477;28;20026;-76
2021/12/22 04:41:31;;;;;;;125.78;53.78;;;4.60;99.90;;;;;;5016718;28;20761;-75
2021/12/22 04:43:57;;;;;;;56.92;28.02;;;4.50;99.90;;;;;;5002341;28;20201;-76
2021/12/22 04:46:23;;;;;;;214.52;82.45;;;4.50;99.90;;;;;;5017103;28;20038;-76
2021/12/22 04:48:49;;;;;;;208.55;81.25;;;4.50;99.90;;;;;;5015653;28;20038;-76
2021/12/22 04:51:27;;;;;;;131.55;55.70;;;4.50;99.90;;;;;;5017114;28;20486;-75
2021/12/22 04:56:28;;;;;;;219.07;85.25;;;4.50;99.90;;;;;;5021101;28;20022;-76
2021/12/22 04:58:54;;;;;;;54.60;30.23;;;4.50;99.90;;;;;;5016096;28;20018;-76
2021/12/22 05:01:20;;;;;;;93.90;44.05;;;4.50;99.90;;;;;;5015575;28;20026;-76
2021/12/22 05:03:45;;;;;;;157.05;64.60;;;4.50;99.90;;;;;;5017147;28;20076;-76
2021/12/22 05:06:11;;;;;;;190.15;71.07;;;4.40;99.90;;;;;;5015279;28;20076;-76
2021/12/22 05:08:37;;;;;;;122.03;53.85;;;4.50;99.90;;;;;;5021654;28;20116;-76
2021/12/22 05:11:03;;;;;;;40.08;25.77;;;4.50;99.90;;;;;;5047811;28;20033;-76
2021/12/22 05:13:29;;;;;;;612.83;295.92;;;4.50;99.90;;;;;;5017182;28;20025;-76
2021/12/22 05:15:55;;;;;;;126.05;59.05;;;4.60;99.90;;;;;;5016188;28;20540;-76
2021/12/22 05:18:36;;;;;;;62.20;31.17;;;4.50;99.90;;;;;;5015895;28;20109;-76
2021/12/22 05:21:01;;;;;;;61.35;35.22;;;4.50;99.90;;;;;;5016894;28;20033;-75
2021/12/22 05:23:27;;;;;;;59.70;31.80;;;4.50;99.90;;;;;;5015825;28;20030;-76
2021/12/22 05:25:53;;;;;;;83.88;40.40;;;4.40;99.90;;;;;;5017078;28;20092;-76
2021/12/22 05:28:18;;;;;;;83.05;43.70;;;4.40;99.90;;;;;;5022361;28;20109;-76
2021/12/22 05:30:47;;;;;;;142.75;67.78;;;4.40;99.90;;;;;;5011419;28;20027;-76
2021/12/22 05:33:13;;;;;;;78.57;42.78;;;4.40;99.90;;;;;;5011723;28;20072;-76
2021/12/22 05:35:39;;;;;;;150.02;71.63;;;4.30;99.90;;;;;;5017947;28;20026;-76
2021/12/22 05:38:05;;;;;;;42.80;26.88;;;4.40;99.90;;;;;;5020152;28;20057;-76
2021/12/22 05:40:31;;;;;;;36.15;24.05;;;4.50;99.90;;;;;;5035050;28;20044;-75
2021/12/22 05:42:57;;;;;;;78.88;43.22;;;4.50;99.90;;;;;;5031964;28;20033;-76
2021/12/22 05:45:25;;;;;;;33.10;22.50;;;4.50;99.90;;;;;;5012879;28;20145;-76
2021/12/22 05:47:52;;;;;;;163.50;74.25;;;4.60;99.90;;;;;;5025598;28;20045;-75
2021/12/22 05:50:19;;;;;;;39.55;24.08;;;4.60;99.90;;;;;;5038767;28;20034;-76
2021/12/22 05:52:45;;;;;;;66.20;33.10;;;4.60;99.90;;;;;;5036376;28;20013;-76
2021/12/22 05:55:11;;;;;;;83.10;43.33;;;4.70;99.90;;;;;;5020264;28;20022;-76
2021/12/22 05:57:36;;;;;;;194.52;88.07;;;4.70;99.90;;;;;;5020023;28;20904;-76
2021/12/22 06:00:05;;;;;;;68.43;36.50;;;4.70;99.90;;;;;;5019754;28;20404;-76
2021/12/22 06:02:30;;;;;;;176.43;84.95;;;4.70;99.90;;;;;;5018242;28;20043;-76
2021/12/22 06:04:56;;;;;;;131.65;67.43;;;4.70;99.90;;;;;;5018042;28;20033;-76
2021/12/22 06:07:22;;;;;;;86.03;45.28;;;4.60;99.90;;;;;;5009673;28;20050;-76
2021/12/22 06:09:48;;;;;;;31.40;21.75;;;4.60;99.90;;;;;;5019677;28;20073;-76
2021/12/22 06:12:13;;;;;;;61.10;31.80;;;4.60;99.90;;;;;;5023850;28;20026;-76
2021/12/22 06:14:39;;;;;;;41.03;23.35;;;4.60;99.90;;;;;;5018335;28;20030;-76
2021/12/22 06:17:05;;;;;;;27.90;16.27;;;4.60;99.90;;;;;;5025973;28;20025;-76
2021/12/22 06:19:31;;;;;;;102.50;52.22;;;4.70;99.90;;;;;;5026402;28;20505;-75
2021/12/22 06:21:57;;;;;;;43.00;25.25;;;4.70;99.90;;;;;;5022580;28;20108;-76
2021/12/22 06:24:22;;;;;;;42.38;24.30;;;4.70;99.90;;;;;;5027121;28;20041;-76
2021/12/22 06:26:48;;;;;;;202.50;93.05;;;4.70;99.90;;;;;;5039338;28;20079;-77
2021/12/22 06:29:14;;;;;;;93.55;48.42;;;4.70;99.90;;;;;;5028447;28;20029;-76
2021/12/22 06:31:40;;;;;;;101.65;51.55;;;4.70;99.90;;;;;;5018476;28;20030;-76
2021/12/22 06:34:07;;;;;;;36.22;24.20;;;4.70;99.90;;;;;;5016248;28;20030;-76
2021/12/22 06:36:33;;;;;;;69.40;36.35;;;4.80;99.90;;;;;;5012745;28;20053;-76
2021/12/22 06:38:59;;;;;;;72.13;37.63;;;4.80;99.90;;;;;;5044036;28;20057;-76
2021/12/22 06:41:25;;;;;;;35.67;21.25;;;4.80;99.90;;;;;;5017631;28;20440;-76
2021/12/22 06:43:51;;;;;;;28.27;18.67;;;4.80;99.90;;;;;;5034200;28;20041;-77
2021/12/22 06:46:17;;;;;;;51.30;30.10;;;4.80;99.90;;;;;;5011091;28;20041;-77
2021/12/22 06:48:42;;;;;;;114.72;58.88;;;4.80;99.90;;;;;;5017509;28;20036;-76
2021/12/22 06:51:08;;;;;;;115.05;57.00;;;4.80;99.90;;;;;;5016993;28;20038;-76
2021/12/22 06:53:37;;;;;;;47.25;28.55;;;4.80;99.90;;;;;;5024076;28;20026;-76
2021/12/22 06:56:04;;;;;;;43.90;27.05;;;4.80;99.90;;;;;;5037544;28;20025;-76
2021/12/22 06:58:29;;;;;;;32.42;21.38;;;4.80;99.90;;;;;;5019153;28;20014;-76
2021/12/22 07:00:56;;;;;;;68.38;38.85;;;4.80;99.90;;;;;;5017735;28;20054;-76
2021/12/22 07:03:22;;;;;;;73.90;41.35;;;4.90;99.90;;;;;;5018246;28;20040;-76
2021/12/22 07:05:47;;;;;;;76.35;42.50;;;4.90;99.90;;;;;;5017238;28;20098;-76
2021/12/22 07:08:13;;;;;;;189.27;98.38;;;4.90;99.90;;;;;;5020640;28;20033;-75
2021/12/22 07:10:39;;;;;;;46.55;26.67;;;4.90;99.90;;;;;;5030578;28;20036;-75
2021/12/22 07:13:06;;;;;;;128.18;65.63;;;4.90;99.90;;;;;;5038398;28;20029;-74
2021/12/22 07:15:33;;;;;;;53.50;32.10;;;4.80;99.90;;;;;;5038762;28;20399;-75
2021/12/22 07:17:59;;;;;;;26.67;18.67;;;4.70;99.90;;;;;;5017233;28;20026;-75
2021/12/22 07:20:24;;;;;;;170.07;83.20;;;4.70;99.90;;;;;;5015442;28;20041;-75
2021/12/22 07:22:52;;;;;;;51.80;30.27;;;4.70;99.90;;;;;;5018600;28;20030;-75
2021/12/22 07:25:23;;;;;;;139.77;70.65;;;4.70;99.90;;;;;;5017291;28;20025;-76
2021/12/22 07:27:49;;;;;;;43.67;29.17;;;4.70;99.90;;;;;;5016068;28;20025;-75
2021/12/22 07:30:15;;;;;;;63.13;36.47;;;4.80;99.90;;;;;;5017188;28;20062;-75
2021/12/22 07:32:41;;;;;;;73.25;41.22;;;4.80;99.90;;;;;;5016928;28;20060;-76
2021/12/22 07:35:09;;;;;;;55.40;34.60;;;4.90;99.90;;;;;;5049503;28;20498;-75
2021/12/22 07:37:41;;;;;;;44.30;29.67;;;4.80;99.90;;;;;;5016661;28;20022;-75
2021/12/22 07:40:15;;;;;;;27.30;19.58;;;4.90;99.90;;;;;;5042947;28;20064;-76
2021/12/22 07:42:42;;;;;;;63.72;36.85;;;4.90;99.90;;;;;;5016019;28;20033;-75
2021/12/22 07:45:09;;;;;;;29.67;19.77;;;4.90;99.90;;;;;;5016380;28;20406;-75
2021/12/22 07:47:35;;;;;;;45.80;28.00;;;5.00;99.90;;;;;;5019193;28;20022;-75
2021/12/22 07:50:01;;;;;;;32.65;20.25;;;5.00;99.90;;;;;;5015259;28;20034;-75
2021/12/22 07:52:27;;;;;;;59.78;37.05;;;5.00;99.90;;;;;;5017839;28;20033;-75
2021/12/22 07:54:57;;;;;;;69.65;38.72;;;5.00;99.90;;;;;;5017576;28;20025;-75
2021/12/22 07:57:23;;;;;;;58.80;35.80;;;5.00;99.90;;;;;;5014993;28;20021;-75
2021/12/22 07:59:49;;;;;;;40.63;25.75;;;5.00;99.90;;;;;;5024283;28;20037;-76
2021/12/22 08:02:15;;;;;;;19.75;16.58;;;5.10;99.90;;;;;;5040844;28;20121;-75
2021/12/22 08:04:41;;;;;;;23.98;17.73;;;5.20;99.90;;;;;;5016679;28;20060;-75
2021/12/22 08:07:07;;;;;;;35.22;23.77;;;5.20;99.90;;;;;;5017748;28;20096;-75
2021/12/22 08:09:33;;;;;;;21.50;16.20;;;5.30;99.90;;;;;;5017749;28;20026;-75
2021/12/22 08:12:04;;;;;;;52.10;30.90;;;5.40;99.90;;;;;;5021948;28;20030;-75
2021/12/22 08:14:31;;;;;;;;;;;5.40;99.90;;;;;;5016746;28;20033;-75
2021/12/22 08:16:57;;;;;;;29.27;18.40;;;5.40;99.90;;;;;;5015334;28;19920;-77
2021/12/22 08:19:22;;;;;;;31.20;23.02;;;5.50;99.90;;;;;;5017322;28;20082;-76
2021/12/22 08:21:48;;;;;;;38.60;22.67;;;5.60;99.90;;;;;;5016022;28;20022;-75
2021/12/22 08:24:14;;;;;;;31.30;19.08;;;5.60;99.90;;;;;;5015433;28;20026;-75
2021/12/22 08:26:40;;;;;;;31.52;20.58;;;5.60;99.90;;;;;;5023467;28;20029;-76
2021/12/22 08:29:06;;;;;;;50.17;29.58;;;5.70;99.90;;;;;;5025853;28;20022;-76
2021/12/22 08:31:32;;;;;;;49.55;31.70;;;5.70;99.90;;;;;;5039242;28;20041;-75
2021/12/22 08:33:57;;;;;;;36.42;23.25;;;5.80;99.90;;;;;;5021294;28;20027;-77
2021/12/22 08:39:09;;;;;;;22.83;17.73;;;6.00;99.90;;;;;;5004267;28;20041;-76
2021/12/22 08:41:39;;;;;;;25.55;18.90;;;6.10;99.90;;;;;;5016159;28;20034;-75
2021/12/22 08:44:08;;;;;;;22.02;16.80;;;6.20;99.90;;;;;;5016288;28;20026;-75
2021/12/22 08:46:37;;;;;;;42.90;26.92;;;6.20;99.90;;;;;;5048433;28;20037;-75
2021/12/22 08:49:05;;;;;;;24.77;18.00;;;6.20;99.90;;;;;;5021829;28;20083;-76
2021/12/22 08:51:31;;;;;;;24.80;18.40;;;6.30;99.90;;;;;;5022084;28;20056;-76
2021/12/22 08:53:57;;;;;;;31.98;23.02;;;6.30;99.90;;;;;;5012458;28;20030;-76
2021/12/22 08:56:23;;;;;;;29.75;18.77;;;6.40;99.90;;;;;;5015488;28;20058;-76
2021/12/22 08:58:49;;;;;;;25.23;16.65;;;6.40;99.90;;;;;;5014037;28;20018;-75
2021/12/22 09:01:15;;;;;;;24.67;17.52;;;6.50;99.90;;;;;;5020748;28;20104;-76
2021/12/22 09:03:40;;;;;;;18.83;15.30;;;6.60;99.90;;;;;;5036711;28;20064;-76
2021/12/22 09:06:06;;;;;;;24.98;16.77;;;6.60;99.90;;;;;;5016993;28;20084;-76
2021/12/22 09:08:32;;;;;;;21.45;15.68;;;6.70;99.90;;;;;;5017438;28;20405;-76
2021/12/22 09:10:58;;;;;;;23.55;16.13;;;6.70;99.90;;;;;;5019156;28;20050;-77
2021/12/22 09:13:24;;;;;;;22.33;14.93;;;6.80;99.90;;;;;;5019471;28;20022;-75
2021/12/22 09:15:50;;;;;;;21.73;15.45;;;6.80;99.90;;;;;;5016177;28;20022;-74
2021/12/22 09:18:17;;;;;;;17.88;14.32;;;6.90;99.90;;;;;;5013857;28;20088;-75
2021/12/22 09:20:43;;;;;;;126.25;50.75;;;7.00;99.90;;;;;;5006011;28;20031;-76
2021/12/22 09:23:08;;;;;;;433.38;150.43;;;7.00;99.90;;;;;;5015914;28;20034;-75
2021/12/22 09:25:34;;;;;;;103.50;33.10;;;7.10;99.90;;;;;;5016413;28;20056;-77
2021/12/22 09:28:01;;;;;;;38.33;20.20;;;7.10;99.90;;;;;;5015534;28;20030;-76
2021/12/22 09:30:35;;;;;;;413.25;169.73;;;7.20;99.90;;;;;;5012967;28;20026;-74
2021/12/22 09:33:03;;;;;;;315.48;127.60;;;7.20;99.90;;;;;;5014702;28;20081;-75
2021/12/22 09:35:29;;;;;;;68.40;29.90;;;7.30;99.90;;;;;;5014505;28;20018;-75
2021/12/22 09:37:54;;;;;;;186.02;78.93;;;7.30;99.90;;;;;;5014820;28;20034;-76
2021/12/22 09:40:20;;;;;;;140.63;56.70;;;7.40;99.90;;;;;;5023135;28;20037;-77
2021/12/22 09:42:46;;;;;;;21.40;13.57;;;7.50;99.90;;;;;;5017881;28;20398;-77
2021/12/22 09:45:12;;;;;;;28.30;17.15;;;7.50;99.90;;;;;;5019769;28;20026;-76
2021/12/22 09:47:58;;;;;;;61.50;35.10;;;7.60;99.90;;;;;;5020350;28;20026;-76
2021/12/22 09:50:38;;;;;;;37.20;21.88;;;7.60;99.90;;;;;;5019522;28;20109;-76
2021/12/22 09:53:04;;;;;;;90.95;55.45;;;7.60;99.90;;;;;;5019654;28;20018;-77
2021/12/22 09:55:33;;;;;;;111.72;67.60;;;7.70;99.90;;;;;;5019773;28;20062;-76
2021/12/22 09:58:04;;;;;;;32.23;22.40;;;7.70;99.90;;;;;;5021791;28;20076;-76
2021/12/22 10:00:32;;;;;;;29.92;19.58;;;7.90;99.90;;;;;;5018679;28;20037;-77
2021/12/22 10:02:58;;;;;;;29.50;18.48;;;7.90;99.90;;;;;;5006648;28;20058;-76
2021/12/22 10:05:24;;;;;;;27.40;19.05;;;7.90;99.90;;;;;;5019246;28;20033;-77
2021/12/22 10:08:17;;;;;;;30.67;20.15;;;8.00;99.90;;;;;;5018607;28;20061;-76
2021/12/22 10:10:46;;;;;;;16.27;13.60;;;8.00;99.90;;;;;;5018459;28;20094;-76
2021/12/22 10:13:20;;;;;;;22.75;17.25;;;8.10;99.90;;;;;;5018537;28;20033;-76
2021/12/22 10:15:47;;;;;;;16.10;13.77;;;8.10;99.90;;;;;;5018354;28;20076;-76
2021/12/22 10:18:21;;;;;;;21.45;15.32;;;8.10;99.90;;;;;;5019842;28;20109;-78
2021/12/22 10:20:50;;;;;;;20.60;14.20;;;8.20;99.90;;;;;;5019889;28;20030;-78
2021/12/22 10:23:29;;;;;;;17.38;10.95;;;8.30;99.90;;;;;;5018520;28;20026;-78
2021/12/22 10:25:57;;;;;;;14.50;11.52;;;8.30;99.90;;;;;;5019797;28;20037;-79
2021/12/22 10:28:25;;;;;;;19.48;11.52;;;8.30;99.90;;;;;;5024808;28;20116;-76
2021/12/22 10:30:55;;;;;;;17.75;11.55;;;8.40;99.90;;;;;;5021188;28;20088;-75
2021/12/22 10:33:25;;;;;;;17.83;11.82;;;8.40;99.90;;;;;;5020279;28;20097;-76
2021/12/22 10:35:53;;;;;;;16.45;12.30;;;8.40;99.90;;;;;;5019259;28;20478;-78
2021/12/22 10:38:24;;;;;;;13.88;10.35;;;8.50;99.90;;;;;;5018079;28;20120;-76
2021/12/22 10:40:51;;;;;;;;;;;8.60;99.90;;;;;;5020040;28;20057;-75
2021/12/22 10:43:24;;;;;;;17.10;10.88;;;8.60;99.90;;;;;;5015857;28;19912;-76
2021/12/22 10:45:53;;;;;;;13.93;11.15;;;8.60;99.90;;;;;;5019126;28;20030;-78
2021/12/22 10:51:08;;;;;;;24.10;12.35;;;8.70;99.90;;;;;;5018998;28;20096;-78
2021/12/22 10:53:45;;;;;;;20.38;12.63;;;8.70;99.90;;;;;;5017612;28;20022;-80
2021/12/22 10:56:22;;;;;;;17.48;11.63;;;8.70;99.90;;;;;;5025220;28;20074;-78
2021/12/22 10:58:59;;;;;;;14.30;11.07;;;8.80;99.90;;;;;;5018719;28;20375;-80
2021/12/22 11:01:25;;;;;;;14.57;10.88;;;8.80;99.90;;;;;;5013046;28;20047;-79
2021/12/22 11:03:55;;;;;;;16.30;10.90;;;8.90;99.90;;;;;;5015264;28;20394;-83
2021/12/22 11:06:28;;;;;;;15.43;10.83;;;8.90;99.90;;;;;;5018866;28;20050;-80
2021/12/22 11:09:01;;;;;;;14.75;9.38;;;8.90;99.90;;;;;;5017380;28;20033;-85
2021/12/22 11:11:56;;;;;;;14.75;10.63;;;9.00;99.90;;;;;;5018497;28;20030;-80
2021/12/22 11:14:33;;;;;;;13.32;10.80;;;9.00;99.90;;;;;;5015194;28;20113;-81
2021/12/22 11:17:04;;;;;;;16.00;10.70;;;9.00;99.90;;;;;;5017540;28;20075;-83
2021/12/22 11:19:38;;;;;;;22.10;11.18;;;9.00;99.90;;;;;;5023431;28;20481;-82
2021/12/22 11:22:13;;;;;;;13.38;11.18;;;9.10;99.90;;;;;;5017532;28;20022;-82
2021/12/22 11:24:47;;;;;;;18.05;11.27;;;9.00;99.90;;;;;;5018726;28;20033;-80
2021/12/22 11:27:25;;;;;;;12.45;9.75;;;9.10;99.90;;;;;;5017905;28;20029;-86
2021/12/22 11:29:54;;;;;;;14.73;10.50;;;9.10;99.90;;;;;;5017180;28;20112;-84
2021/12/22 11:32:31;;;;;;;15.00;10.43;;;9.20;99.90;;;;;;5016524;28;20405;-82
2021/12/22 11:35:00;;;;;;;17.63;10.50;;;9.20;99.90;;;;;;5017021;28;20029;-82
2021/12/22 11:37:27;;;;;;;14.73;9.60;;;9.30;99.90;;;;;;5017123;28;20053;-82
2021/12/22 11:39:54;;;;;;;16.23;10.57;;;9.30;99.90;;;;;;5018510;28;20029;-83
2021/12/22 11:42:25;;;;;;;14.18;10.35;;;9.30;99.90;;;;;;5016602;28;20505;-80
2021/12/22 11:44:58;;;;;;;14.23;8.98;;;9.30;99.90;;;;;;5017708;28;20022;-81
2021/12/22 11:47:25;;;;;;;12.95;10.50;;;9.30;99.90;;;;;;5018002;28;20104;-81
2021/12/22 11:50:03;;;;;;;15.18;11.38;;;9.30;99.90;;;;;;5017593;28;20022;-79
2021/12/22 11:52:34;;;;;;;13.40;10.63;;;9.40;99.90;;;;;;5017070;28;20025;-80
2021/12/22 11:55:11;;;;;;;14.50;9.68;;;9.40;99.90;;;;;;5016617;28;20080;-80
2021/12/22 11:57:37;;;;;;;20.52;10.32;;;9.50;99.90;;;;;;5016456;28;20036;-82
2021/12/22 12:00:24;;;;;;;19.48;12.20;;;9.40;99.90;;;;;;5017108;28;20018;-80
2021/12/22 12:02:51;;;;;;;11.60;8.57;;;9.50;99.90;;;;;;5017556;28;20120;-80
2021/12/22 12:05:26;;;;;;;18.17;11.05;;;9.50;99.90;;;;;;5017832;28;20033;-79
2021/12/22 12:08:01;;;;;;;12.02;10.57;;;9.40;99.90;;;;;;5017745;28;20095;-79
2021/12/22 12:10:38;;;;;;;12.38;10.52;;;9.50;99.90;;;;;;5017969;28;20030;-81
2021/12/22 12:13:37;;;;;;;15.80;10.98;;;9.50;99.90;;;;;;5017713;28;20057;-81
2021/12/22 12:21:57;;;;;;;15.90;10.43;;;9.50;99.90;;;;;;5017998;28;20033;-78
2021/12/22 12:24:38;;;;;;;14.05;10.23;;;9.50;99.90;;;;;;5017764;28;20030;-82
2021/12/22 12:27:22;;;;;;;;;;;9.50;99.90;;;;;;5016153;28;20115;-78
2021/12/22 12:29:58;;;;;;;18.00;11.43;;;9.50;99.90;;;;;;5008995;28;19909;-79
2021/12/22 12:32:39;;;;;;;17.02;9.80;;;9.50;99.90;;;;;;5016780;28;20447;-79
2021/12/22 12:35:28;;;;;;;16.10;10.48;;;9.60;99.90;;;;;;5017046;28;20030;-80
2021/12/22 12:38:04;;;;;;;9.30;7.80;;;9.60;99.90;;;;;;5011132;28;20025;-79
2021/12/22 12:40:54;;;;;;;11.10;9.35;;;9.60;99.90;;;;;;5029334;28;20033;-79
2021/12/22 12:43:47;;;;;;;14.73;9.35;;;9.60;99.90;;;;;;5017410;28;20062;-79
2021/12/22 12:46:19;;;;;;;15.98;11.10;;;9.60;99.90;;;;;;5015073;28;20038;-79
2021/12/22 12:49:06;;;;;;;17.15;9.90;;;9.50;99.90;;;;;;5016803;28;20061;-79
2021/12/22 12:51:54;;;;;;;14.23;10.70;;;9.60;99.90;;;;;;5015428;28;20018;-78
2021/12/22 12:54:22;;;;;;;14.48;11.38;;;9.50;99.90;;;;;;5024974;28;20040;-79
2021/12/22 12:56:58;;;;;;;15.57;10.57;;;9.50;99.90;;;;;;5029262;28;20053;-78
2021/12/22 12:59:48;;;;;;;14.35;11.73;;;9.50;99.90;;;;;;5046005;28;20406;-78
2021/12/22 13:02:30;;;;;;;13.55;11.07;;;9.50;99.90;;;;;;5014355;28;20049;-77
2021/12/22 13:05:02;;;;;;;14.77;11.73;;;9.50;99.90;;;;;;5017033;28;20058;-77
2021/12/22 13:07:28;;;;;;;19.58;11.15;;;9.60;99.90;;;;;;5027330;28;20038;-78
2021/12/22 13:10:11;;;;;;;19.92;12.07;;;9.60;99.90;;;;;;5036750;28;20040;-78
2021/12/22 13:18:10;;;;;;;22.20;11.15;;;9.50;99.90;;;;;;5036690;28;20106;-77
2021/12/22 13:20:38;;;;;;;17.20;11.65;;;9.60;99.90;;;;;;5036978;28;20147;-78
2021/12/22 13:23:12;;;;;;;16.05;11.57;;;9.50;99.90;;;;;;5034940;28;20417;-78